Time;durP1;ratioP1;P1;durP2;ratioP2;P2;SDS_P1;SDS_P2;PMS_P1;PMS_P2;Temp;Humidity;BMP_temperature;BMP_pressure;BME280_temperature;BME280_humidity;BME280_pressure;Samples;Min_cycle;Max_cycle;Signal;HPM_P1;HPM_P2
2023/08/22 00:00:41;;;;;;;17.80;3.10;;;;;;;;;;5061398;28;20039;-87
2023/08/22 00:03:07;;;;;;;8.73;2.85;;;;;;;;;;5078356;28;20029;-87
2023/08/22 00:05:32;;;;;;;3.75;2.28;;;;;;;;;;5064853;28;20074;-86
2023/08/22 00:08:04;;;;;;;5.07;2.30;;;;;;;;;;5068747;28;20020;-87
2023/08/22 00:10:31;;;;;;;5.90;2.45;;;;;;;;;;5079298;28;20455;-86
2023/08/22 00:12:56;;;;;;;4.72;2.17;;;;;;;;;;5079081;28;20028;-87
2023/08/22 00:15:22;;;;;;;4.60;2.28;;;;;;;;;;5081768;28;20025;-87
2023/08/22 00:17:48;;;;;;;6.40;2.30;;;;;;;;;;5062023;28;20501;-87
2023/08/22 00:20:16;;;;;;;5.28;2.22;;;;;;;;;;5095615;28;20093;-86
2023/08/22 00:22:42;;;;;;;10.02;2.17;;;;;;;;;;5061807;28;20020;-87
2023/08/22 00:25:08;;;;;;;8.45;2.30;;;;;;;;;;5080681;28;20028;-87
2023/08/22 00:27:35;;;;;;;3.72;2.10;;;;;;;;;;5081637;28;20116;-86
2023/08/22 00:30:00;;;;;;;7.97;2.40;;;;;;;;;;5081132;28;20042;-86
2023/08/22 00:32:25;;;;;;;4.35;2.00;;;;;;;;;;5065740;28;20421;-87
2023/08/22 00:34:51;;;;;;;5.03;1.85;;;;;;;;;;5064968;28;20031;-87
2023/08/22 00:37:20;;;;;;;4.72;2.05;;;;;;;;;;5066890;28;20021;-87
2023/08/22 00:39:46;;;;;;;3.78;1.95;;;;;;;;;;5081036;28;20112;-87
2023/08/22 00:42:11;;;;;;;7.40;2.50;;;;;;;;;;5061411;28;20094;-87
2023/08/22 00:44:39;;;;;;;4.90;2.38;;;;;;;;;;5059283;28;20165;-87
2023/08/22 00:47:05;;;;;;;7.95;2.30;;;;;;;;;;5075412;28;20100;-87
2023/08/22 00:49:30;;;;;;;3.78;1.95;;;;;;;;;;5080062;28;20040;-86
2023/08/22 00:51:58;;;;;;;6.13;2.25;;;;;;;;;;5077546;28;20444;-87
2023/08/22 00:54:23;;;;;;;3.20;2.30;;;;;;;;;;5075123;28;20025;-87
2023/08/22 00:56:49;;;;;;;9.50;2.78;;;;;;;;;;5076977;28;20016;-87
2023/08/22 00:59:15;;;;;;;5.68;2.28;;;;;;;;;;5075478;28;20451;-86
2023/08/22 01:01:41;;;;;;;4.35;2.40;;;;;;;;;;5074016;28;20363;-86
2023/08/22 01:04:06;;;;;;;5.22;2.10;;;;;;;;;;5057665;28;20131;-87
2023/08/22 01:06:50;;;;;;;6.93;2.45;;;;;;;;;;5058620;28;20016;-85
2023/08/22 01:09:30;;;;;;;5.10;2.22;;;;;;;;;;5058892;28;20663;-87
2023/08/22 01:11:59;;;;;;;5.35;1.92;;;;;;;;;;5076835;28;20025;-87
2023/08/22 01:14:26;;;;;;;5.93;2.10;;;;;;;;;;5075033;28;20360;-88
2023/08/22 01:16:51;;;;;;;10.35;2.50;;;;;;;;;;5057951;28;20082;-88
2023/08/22 01:19:19;;;;;;;4.47;1.88;;;;;;;;;;5057715;28;20032;-86
2023/08/22 01:21:48;;;;;;;4.43;2.05;;;;;;;;;;5059809;28;20384;-87
2023/08/22 01:24:14;;;;;;;6.07;2.28;;;;;;;;;;5057645;28;20387;-86
2023/08/22 01:26:39;;;;;;;2.95;1.77;;;;;;;;;;5057670;28;20004;-87
2023/08/22 01:29:14;;;;;;;9.25;2.22;;;;;;;;;;5069267;28;20070;-88
2023/08/22 01:31:48;;;;;;;3.75;1.98;;;;;;;;;;5057354;28;20042;-88
2023/08/22 01:34:27;;;;;;;3.72;2.65;;;;;;;;;;5058193;28;20098;-87
2023/08/22 01:36:54;;;;;;;4.82;2.20;;;;;;;;;;5073677;28;20074;-87
2023/08/22 01:39:22;;;;;;;5.68;2.00;;;;;;;;;;5076264;28;20371;-87
2023/08/22 01:41:48;;;;;;;4.80;2.00;;;;;;;;;;5058889;28;20546;-87
2023/08/22 01:44:16;;;;;;;4.70;2.42;;;;;;;;;;5075966;28;20055;-87
2023/08/22 01:46:42;;;;;;;4.05;2.25;;;;;;;;;;5057939;28;20021;-88
2023/08/22 01:49:10;;;;;;;3.38;2.22;;;;;;;;;;5058244;28;20031;-87
2023/08/22 01:51:35;;;;;;;7.97;2.20;;;;;;;;;;5074767;28;20089;-87
2023/08/22 01:54:06;;;;;;;5.03;2.60;;;;;;;;;;5057248;28;20467;-87
2023/08/22 01:56:34;;;;;;;8.38;2.50;;;;;;;;;;5074648;28;20025;-87
2023/08/22 01:59:00;;;;;;;4.13;2.55;;;;;;;;;;5065743;28;20044;-87
2023/08/22 02:01:25;;;;;;;2.80;2.03;;;;;;;;;;5069242;28;20448;-87
2023/08/22 02:03:50;;;;;;;5.60;3.33;;;;;;;;;;5056844;28;20028;-87
2023/08/22 02:06:18;;;;;;;5.20;2.17;;;;;;;;;;5069347;28;20028;-86
2023/08/22 02:08:44;;;;;;;4.78;2.25;;;;;;;;;;5075221;28;20081;-87
2023/08/22 02:11:09;;;;;;;4.88;2.03;;;;;;;;;;5057783;28;20032;-87
2023/08/22 02:13:35;;;;;;;4.18;2.55;;;;;;;;;;5077741;28;20017;-87
2023/08/22 02:16:00;;;;;;;4.28;2.20;;;;;;;;;;5069262;28;20025;-86
2023/08/22 02:18:26;;;;;;;6.68;2.45;;;;;;;;;;5053075;28;20475;-86
2023/08/22 02:20:52;;;;;;;3.63;2.58;;;;;;;;;;5068701;28;20025;-85
2023/08/22 02:23:17;;;;;;;6.85;2.63;;;;;;;;;;5058621;28;20047;-88
2023/08/22 02:25:42;;;;;;;4.60;2.33;;;;;;;;;;5074506;28;20016;-87
2023/08/22 02:28:08;;;;;;;6.03;2.70;;;;;;;;;;5075812;28;20039;-87
2023/08/22 02:30:33;;;;;;;11.32;2.80;;;;;;;;;;5103816;28;20043;-88
2023/08/22 02:32:59;;;;;;;7.72;3.00;;;;;;;;;;5059626;28;20529;-88
2023/08/22 02:35:27;;;;;;;8.13;2.75;;;;;;;;;;5058102;28;20179;-87
2023/08/22 02:37:52;;;;;;;5.72;2.75;;;;;;;;;;5075103;28;20016;-87
2023/08/22 02:40:17;;;;;;;5.47;3.03;;;;;;;;;;5075721;28;20027;-88
2023/08/22 02:42:46;;;;;;;5.40;2.60;;;;;;;;;;5068545;28;20031;-87
2023/08/22 02:45:11;;;;;;;5.68;3.03;;;;;;;;;;5076459;28;20016;-87
2023/08/22 02:47:36;;;;;;;11.02;2.85;;;;;;;;;;5077531;28;20024;-87
2023/08/22 02:50:02;;;;;;;4.75;2.70;;;;;;;;;;5056727;28;20013;-87
2023/08/22 02:52:27;;;;;;;8.00;3.25;;;;;;;;;;5074540;28;20066;-87
2023/08/22 02:54:53;;;;;;;10.73;3.65;;;;;;;;;;5081886;28;20043;-87
2023/08/22 02:57:20;;;;;;;5.38;3.80;;;;;;;;;;5075668;28;20017;-88
2023/08/22 02:59:46;;;;;;;5.53;3.50;;;;;;;;;;5057306;28;20387;-87
2023/08/22 03:02:11;;;;;;;7.47;3.97;;;;;;;;;;5071015;28;20024;-87
2023/08/22 03:04:39;;;;;;;7.95;3.88;;;;;;;;;;5067116;28;20138;-88
2023/08/22 03:07:05;;;;;;;7.38;4.03;;;;;;;;;;5065642;28;20078;-88
2023/08/22 03:09:30;;;;;;;10.35;3.88;;;;;;;;;;5076986;28;20024;-87
2023/08/22 03:11:56;;;;;;;5.47;3.70;;;;;;;;;;5076523;28;20036;-87
2023/08/22 03:14:21;;;;;;;7.97;4.50;;;;;;;;;;5058607;28;20021;-87
2023/08/22 03:16:46;;;;;;;8.32;3.58;;;;;;;;;;5058810;28;20030;-87
2023/08/22 03:19:12;;;;;;;6.65;3.90;;;;;;;;;;5057919;28;20101;-87
2023/08/22 03:21:37;;;;;;;6.95;3.63;;;;;;;;;;5076795;28;20114;-88
2023/08/22 03:24:03;;;;;;;7.97;3.75;;;;;;;;;;5061651;28;20034;-87
2023/08/22 03:26:30;;;;;;;7.10;4.00;;;;;;;;;;5077443;28;20452;-88
2023/08/22 03:28:56;;;;;;;5.95;3.78;;;;;;;;;;5079427;28;20016;-87
2023/08/22 03:31:30;;;;;;;6.30;3.67;;;;;;;;;;5062509;28;20037;-87
2023/08/22 03:33:56;;;;;;;10.25;4.13;;;;;;;;;;5080918;28;20089;-87
2023/08/22 03:36:21;;;;;;;7.78;4.03;;;;;;;;;;5093320;28;20104;-87
2023/08/22 03:38:50;;;;;;;6.18;3.78;;;;;;;;;;5091428;28;20020;-87
2023/08/22 03:41:16;;;;;;;6.15;3.67;;;;;;;;;;5079145;28;20449;-87
2023/08/22 03:43:41;;;;;;;6.15;3.65;;;;;;;;;;5057926;28;20078;-87
2023/08/22 03:46:06;;;;;;;8.10;3.67;;;;;;;;;;5075648;28;20021;-87
2023/08/22 03:48:32;;;;;;;11.30;3.75;;;;;;;;;;5058183;28;20059;-86
2023/08/22 03:50:57;;;;;;;9.13;4.07;;;;;;;;;;5058763;28;20029;-87
2023/08/22 03:53:22;;;;;;;8.15;3.65;;;;;;;;;;5075556;28;20531;-88
2023/08/22 03:55:48;;;;;;;7.63;3.65;;;;;;;;;;5055847;28;20032;-87
2023/08/22 03:58:14;;;;;;;6.97;3.40;;;;;;;;;;5090636;28;20028;-87
2023/08/22 04:00:39;;;;;;;10.05;3.50;;;;;;;;;;5076679;28;20020;-87
2023/08/22 04:03:07;;;;;;;7.18;3.40;;;;;;;;;;5065539;28;20032;-87
2023/08/22 04:05:32;;;;;;;6.88;3.63;;;;;;;;;;5073217;28;20023;-88
2023/08/22 04:07:58;;;;;;;6.88;3.40;;;;;;;;;;5074211;28;20020;-87
2023/08/22 04:10:26;;;;;;;7.25;3.58;;;;;;;;;;5056888;28;20466;-87
2023/08/22 04:12:51;;;;;;;7.40;3.33;;;;;;;;;;5075689;28;20341;-87
2023/08/22 04:15:19;;;;;;;7.88;3.60;;;;;;;;;;5056932;28;20035;-88
2023/08/22 04:17:44;;;;;;;7.53;3.67;;;;;;;;;;5059466;28;20036;-87
2023/08/22 04:20:11;;;;;;;5.47;3.65;;;;;;;;;;5060325;28;20363;-87
2023/08/22 04:22:37;;;;;;;5.68;3.42;;;;;;;;;;5078977;28;20020;-87
2023/08/22 04:25:04;;;;;;;9.15;3.35;;;;;;;;;;5077585;28;20490;-87
2023/08/22 04:27:32;;;;;;;5.10;3.47;;;;;;;;;;5064173;28;20020;-87
2023/08/22 04:29:57;;;;;;;6.88;3.35;;;;;;;;;;5060424;28;20025;-87
2023/08/22 04:32:25;;;;;;;6.07;3.80;;;;;;;;;;5063414;28;20028;-87
2023/08/22 04:34:50;;;;;;;7.65;3.75;;;;;;;;;;5060842;28;20063;-87
2023/08/22 04:37:15;;;;;;;6.82;3.25;;;;;;;;;;5060775;28;20020;-87
2023/08/22 04:39:41;;;;;;;5.03;3.28;;;;;;;;;;5062776;28;20088;-88
2023/08/22 04:42:06;;;;;;;8.40;3.45;;;;;;;;;;5081417;28;20499;-87
2023/08/22 04:44:32;;;;;;;10.15;2.92;;;;;;;;;;5062852;28;20043;-87
2023/08/22 04:46:57;;;;;;;7.53;2.95;;;;;;;;;;5063403;28;20020;-87
2023/08/22 04:49:29;;;;;;;5.05;2.47;;;;;;;;;;5065853;28;20056;-87
2023/08/22 04:51:54;;;;;;;4.47;2.50;;;;;;;;;;5081228;28;20479;-88
2023/08/22 04:54:19;;;;;;;4.63;2.50;;;;;;;;;;5065984;28;20103;-87
2023/08/22 04:56:45;;;;;;;8.77;3.05;;;;;;;;;;5079953;28;20027;-88
2023/08/22 04:59:10;;;;;;;3.22;2.10;;;;;;;;;;5065080;28;20512;-87
2023/08/22 05:01:38;;;;;;;7.25;2.80;;;;;;;;;;5077223;28;20016;-87
2023/08/22 05:04:03;;;;;;;4.32;2.53;;;;;;;;;;5061988;28;20498;-88
2023/08/22 05:06:29;;;;;;;6.20;2.42;;;;;;;;;;5080114;28;20017;-88
2023/08/22 05:08:54;;;;;;;5.13;2.20;;;;;;;;;;5063202;28;20005;-89
2023/08/22 05:11:22;;;;;;;3.67;2.53;;;;;;;;;;5062030;28;20016;-88
2023/08/22 05:13:47;;;;;;;7.38;2.25;;;;;;;;;;5076906;28;20380;-88
2023/08/22 05:16:13;;;;;;;3.83;2.58;;;;;;;;;;5058797;28;20031;-88
2023/08/22 05:18:38;;;;;;;3.45;2.10;;;;;;;;;;5073772;28;20023;-87
2023/08/22 05:21:04;;;;;;;4.57;2.50;;;;;;;;;;5061867;28;20024;-88
2023/08/22 05:23:29;;;;;;;4.45;2.65;;;;;;;;;;5060963;28;20083;-87
2023/08/22 05:25:55;;;;;;;8.07;2.65;;;;;;;;;;5080325;28;20025;-87
2023/08/22 05:28:20;;;;;;;5.13;2.75;;;;;;;;;;5095463;28;20040;-87
2023/08/22 05:30:45;;;;;;;5.85;3.15;;;;;;;;;;5081200;28;20017;-87
2023/08/22 05:33:11;;;;;;;4.85;3.30;;;;;;;;;;5080149;28;20055;-88
2023/08/22 05:35:36;;;;;;;6.60;3.42;;;;;;;;;;5078651;28;20013;-88
2023/08/22 05:38:01;;;;;;;8.55;3.70;;;;;;;;;;5061741;28;20028;-88
2023/08/22 05:40:28;;;;;;;11.65;3.55;;;;;;;;;;5062621;28;20020;-88
2023/08/22 05:42:53;;;;;;;7.45;3.58;;;;;;;;;;5081123;28;20020;-88
2023/08/22 05:45:19;;;;;;;8.07;3.55;;;;;;;;;;5078768;28;20035;-88
2023/08/22 05:47:44;;;;;;;4.97;3.88;;;;;;;;;;5061613;28;20052;-87
2023/08/22 05:50:15;;;;;;;4.43;3.38;;;;;;;;;;5061383;28;20013;-88
2023/08/22 05:52:40;;;;;;;12.07;4.38;;;;;;;;;;5080527;28;20330;-88
2023/08/22 05:55:09;;;;;;;12.02;3.90;;;;;;;;;;5075855;28;20065;-88
2023/08/22 05:57:34;;;;;;;10.80;4.43;;;;;;;;;;5061604;28;20121;-88
2023/08/22 05:59:59;;;;;;;12.40;5.50;;;;;;;;;;5061885;28;20021;-88
2023/08/22 06:02:25;;;;;;;9.85;5.10;;;;;;;;;;5076037;28;20018;-87
2023/08/22 06:04:50;;;;;;;11.57;5.53;;;;;;;;;;5074972;28;20021;-87
2023/08/22 06:07:16;;;;;;;9.77;5.75;;;;;;;;;;5060707;28;20017;-88
2023/08/22 06:09:41;;;;;;;9.90;6.03;;;;;;;;;;5063112;28;20065;-88
2023/08/22 06:12:07;;;;;;;13.35;5.68;;;;;;;;;;5062272;28;20060;-88
2023/08/22 06:14:33;;;;;;;9.98;5.75;;;;;;;;;;5079026;28;20016;-89
2023/08/22 06:16:58;;;;;;;8.52;5.60;;;;;;;;;;5062806;28;20038;-88
2023/08/22 06:19:24;;;;;;;9.27;5.30;;;;;;;;;;5095555;28;20115;-88
2023/08/22 06:21:49;;;;;;;8.88;5.35;;;;;;;;;;5077026;28;20069;-88
2023/08/22 06:24:15;;;;;;;8.10;5.05;;;;;;;;;;5092701;28;20028;-88
2023/08/22 06:26:40;;;;;;;15.00;6.47;;;;;;;;;;5061834;28;20024;-88
2023/08/22 06:29:06;;;;;;;10.00;5.88;;;;;;;;;;5059825;28;20021;-88
2023/08/22 06:31:31;;;;;;;9.73;6.00;;;;;;;;;;5057801;28;20012;-88
2023/08/22 06:33:57;;;;;;;10.85;6.55;;;;;;;;;;5062159;28;20092;-88
2023/08/22 06:36:24;;;;;;;13.68;6.78;;;;;;;;;;5075025;28;20013;-87
2023/08/22 06:38:51;;;;;;;11.85;6.93;;;;;;;;;;5056631;28;20016;-88
2023/08/22 06:41:16;;;;;;;12.48;6.68;;;;;;;;;;5073647;28;20012;-87
2023/08/22 06:43:42;;;;;;;12.65;7.28;;;;;;;;;;5055500;28;20049;-87
2023/08/22 06:46:07;;;;;;;15.73;6.78;;;;;;;;;;5055739;28;20066;-87
2023/08/22 06:48:33;;;;;;;14.98;7.18;;;;;;;;;;5088855;28;20051;-87
2023/08/22 06:50:58;;;;;;;13.52;6.93;;;;;;;;;;5055555;28;20025;-87
2023/08/22 06:53:23;;;;;;;12.80;7.53;;;;;;;;;;5053433;28;20020;-87
2023/08/22 06:55:49;;;;;;;16.63;8.48;;;;;;;;;;5056203;28;20032;-87
2023/08/22 06:58:14;;;;;;;21.25;8.52;;;;;;;;;;5055916;28;20016;-87
2023/08/22 07:00:40;;;;;;;20.27;8.80;;;;;;;;;;5055602;28;20611;-87
2023/08/22 07:03:05;;;;;;;18.23;9.80;;;;;;;;;;5072876;28;20016;-87
2023/08/22 07:05:30;;;;;;;18.98;9.70;;;;;;;;;;5048515;28;20026;-83
2023/08/22 07:07:56;;;;;;;15.85;9.15;;;;;;;;;;5046508;28;20049;-84
2023/08/22 07:10:22;;;;;;;18.17;10.18;;;;;;;;;;5054850;28;20016;-84
2023/08/22 07:12:47;;;;;;;16.92;9.70;;;;;;;;;;5060288;28;20104;-84
2023/08/22 07:15:12;;;;;;;16.40;10.05;;;;;;;;;;5071505;28;20071;-84
2023/08/22 07:17:37;;;;;;;16.08;9.52;;;;;;;;;;5068493;28;20020;-84
2023/08/22 07:20:03;;;;;;;21.55;9.98;;;;;;;;;;5050336;28;20032;-85
2023/08/22 07:22:31;;;;;;;16.80;10.07;;;;;;;;;;5052039;28;20108;-84
2023/08/22 07:24:57;;;;;;;20.65;9.75;;;;;;;;;;5046858;28;20021;-84
2023/08/22 07:27:25;;;;;;;25.48;8.88;;;;;;;;;;5061804;28;20016;-84
2023/08/22 07:29:51;;;;;;;18.90;9.02;;;;;;;;;;5053799;28;20044;-84
2023/08/22 07:32:19;;;;;;;17.95;8.68;;;;;;;;;;5066366;28;20023;-84
2023/08/22 07:34:44;;;;;;;14.50;8.65;;;;;;;;;;5059227;28;20486;-83
2023/08/22 07:37:10;;;;;;;16.80;8.32;;;;;;;;;;5073451;28;20424;-84
2023/08/22 07:39:35;;;;;;;16.90;8.40;;;;;;;;;;5055319;28;20112;-84
2023/08/22 07:42:04;;;;;;;15.63;8.30;;;;;;;;;;5054920;28;20066;-84
2023/08/22 07:44:30;;;;;;;20.23;8.45;;;;;;;;;;5073212;28;20810;-84
2023/08/22 07:47:03;;;;;;;18.25;8.18;;;;;;;;;;5055766;28;20040;-84
2023/08/22 07:49:28;;;;;;;14.57;6.80;;;;;;;;;;5073366;28;20021;-84
2023/08/22 07:51:53;;;;;;;15.75;7.07;;;;;;;;;;5073480;28;20490;-83
2023/08/22 07:54:19;;;;;;;17.02;8.93;;;;;;;;;;5076894;28;20440;-82
2023/08/22 07:56:45;;;;;;;18.13;8.48;;;;;;;;;;5044773;28;20107;-84
2023/08/22 07:59:10;;;;;;;12.85;7.25;;;;;;;;;;5057798;28;20452;-83
2023/08/22 08:01:36;;;;;;;19.75;7.32;;;;;;;;;;5057451;28;20021;-83
2023/08/22 08:04:02;;;;;;;19.23;8.38;;;;;;;;;;5057633;28;20511;-84
2023/08/22 08:06:34;;;;;;;14.93;6.70;;;;;;;;;;5058265;28;20115;-83
2023/08/22 08:09:00;;;;;;;;;;;;;;;;;;5058496;28;20016;-83
2023/08/22 08:11:34;;;;;;;17.73;7.70;;;;;;;;;;5056479;28;19920;-83
2023/08/22 08:13:59;;;;;;;17.40;7.95;;;;;;;;;;5057931;28;20859;-84
2023/08/22 08:16:25;;;;;;;19.73;8.20;;;;;;;;;;5058016;28;20024;-84
2023/08/22 08:18:51;;;;;;;18.42;7.40;;;;;;;;;;5056510;28;20056;-81
2023/08/22 08:21:17;;;;;;;15.50;7.25;;;;;;;;;;5054404;28;20059;-83
2023/08/22 08:23:44;;;;;;;11.85;5.55;;;;;;;;;;5072898;28;20016;-84
2023/08/22 08:26:13;;;;;;;18.35;6.40;;;;;;;;;;5048827;28;20394;-84
2023/08/22 08:28:39;;;;;;;16.42;6.30;;;;;;;;;;5058279;28;20044;-84
2023/08/22 08:31:06;;;;;;;16.40;7.25;;;;;;;;;;5057332;28;20043;-84
2023/08/22 08:33:31;;;;;;;18.38;5.88;;;;;;;;;;5056313;28;20515;-83
2023/08/22 08:35:57;;;;;;;12.65;6.53;;;;;;;;;;5056271;28;20295;-83
2023/08/22 08:38:22;;;;;;;13.32;5.95;;;;;;;;;;5056055;28;20031;-83
2023/08/22 08:40:48;;;;;;;14.35;6.47;;;;;;;;;;5074162;28;20527;-83
2023/08/22 08:43:13;;;;;;;20.02;6.13;;;;;;;;;;5057054;28;20472;-82
2023/08/22 08:45:39;;;;;;;18.58;5.65;;;;;;;;;;5070426;28;20453;-82
2023/08/22 08:48:05;;;;;;;13.45;5.40;;;;;;;;;;5057438;28;20100;-87
2023/08/22 08:50:31;;;;;;;14.55;6.90;;;;;;;;;;5057029;28;20025;-87
2023/08/22 08:52:56;;;;;;;14.90;5.63;;;;;;;;;;5059665;28;20028;-87
2023/08/22 08:55:22;;;;;;;13.25;6.55;;;;;;;;;;5076671;28;20021;-87
2023/08/22 08:57:51;;;;;;;14.88;6.43;;;;;;;;;;5058079;28;20044;-87
2023/08/22 09:00:16;;;;;;;17.95;7.13;;;;;;;;;;5076317;28;20237;-87
2023/08/22 09:02:43;;;;;;;19.90;7.55;;;;;;;;;;5057411;28;20032;-86
2023/08/22 09:05:10;;;;;;;19.00;8.32;;;;;;;;;;5072468;28;20508;-87
2023/08/22 09:07:35;;;;;;;19.95;7.35;;;;;;;;;;5060486;28;20036;-87
2023/08/22 09:10:02;;;;;;;15.48;7.90;;;;;;;;;;5061290;28;20031;-87
2023/08/22 09:12:41;;;;;;;17.13;6.90;;;;;;;;;;5059773;28;20027;-86
2023/08/22 09:15:16;;;;;;;15.15;7.40;;;;;;;;;;5077530;28;20025;-85
2023/08/22 09:17:45;;;;;;;21.30;8.07;;;;;;;;;;5063129;28;20021;-86
2023/08/22 09:20:10;;;;;;;17.85;6.80;;;;;;;;;;5075300;28;20380;-87
2023/08/22 09:22:36;;;;;;;21.02;7.25;;;;;;;;;;5057260;28;20098;-87
2023/08/22 09:25:03;;;;;;;18.20;7.53;;;;;;;;;;5076344;28;20043;-87
2023/08/22 09:27:29;;;;;;;13.52;6.32;;;;;;;;;;5058141;28;20140;-85
2023/08/22 09:30:00;;;;;;;14.73;5.97;;;;;;;;;;5080737;28;20017;-87
2023/08/22 09:32:25;;;;;;;16.23;4.90;;;;;;;;;;5075737;28;20025;-87
2023/08/22 09:34:55;;;;;;;17.05;6.20;;;;;;;;;;5057540;28;20111;-87
2023/08/22 09:37:36;;;;;;;14.55;5.40;;;;;;;;;;5057894;28;20036;-86
2023/08/22 09:40:06;;;;;;;14.67;5.27;;;;;;;;;;5074099;28;20115;-86
2023/08/22 09:42:31;;;;;;;6.30;3.22;;;;;;;;;;5061766;28;20266;-86
2023/08/22 09:44:57;;;;;;;8.45;2.75;;;;;;;;;;5056516;28;20028;-87
2023/08/22 09:47:28;;;;;;;10.35;2.55;;;;;;;;;;5074619;28;20019;-87
2023/08/22 09:49:55;;;;;;;4.88;1.98;;;;;;;;;;5056379;28;20379;-87
2023/08/22 09:52:20;;;;;;;5.72;1.88;;;;;;;;;;5072459;28;20380;-87
2023/08/22 09:54:45;;;;;;;6.97;1.83;;;;;;;;;;5056151;28;20365;-86
2023/08/22 09:57:11;;;;;;;8.25;2.15;;;;;;;;;;5056542;28;20028;-86
2023/08/22 09:59:37;;;;;;;5.18;1.50;;;;;;;;;;5068529;28;20037;-87
2023/08/22 10:02:04;;;;;;;3.83;1.20;;;;;;;;;;5055600;28;20426;-87
2023/08/22 10:04:32;;;;;;;9.15;1.42;;;;;;;;;;5072683;28;20024;-87
2023/08/22 10:06:58;;;;;;;4.45;1.33;;;;;;;;;;5073102;28;20491;-87
2023/08/22 10:09:24;;;;;;;3.40;1.00;;;;;;;;;;5055519;28;20012;-87
2023/08/22 10:11:54;;;;;;;4.95;1.17;;;;;;;;;;5059538;28;20111;-87
2023/08/22 10:14:23;;;;;;;4.38;1.20;;;;;;;;;;5064282;28;20492;-87
2023/08/22 10:16:53;;;;;;;4.35;1.00;;;;;;;;;;5072352;28;20088;-87
2023/08/22 10:19:19;;;;;;;3.65;1.20;;;;;;;;;;5061851;28;20020;-87
2023/08/22 10:21:48;;;;;;;5.03;1.13;;;;;;;;;;5077561;28;20100;-87
2023/08/22 10:24:19;;;;;;;3.63;1.10;;;;;;;;;;5066529;28;20380;-87
2023/08/22 10:27:10;;;;;;;8.77;0.90;;;;;;;;;;5087909;28;20017;-88
2023/08/22 10:29:37;;;;;;;4.35;1.17;;;;;;;;;;5076742;28;20450;-87
2023/08/22 10:32:02;;;;;;;2.88;0.98;;;;;;;;;;5066129;28;20490;-87
2023/08/22 10:34:33;;;;;;;4.50;1.05;;;;;;;;;;5084448;28;20132;-87
2023/08/22 10:36:59;;;;;;;2.58;0.90;;;;;;;;;;5074530;28;20097;-87
2023/08/22 10:39:37;;;;;;;6.85;1.20;;;;;;;;;;5082244;28;20066;-87
2023/08/22 10:42:03;;;;;;;6.80;1.10;;;;;;;;;;5076137;28;20020;-87
2023/08/22 10:44:30;;;;;;;3.08;0.82;;;;;;;;;;5065919;28;20024;-86
2023/08/22 10:47:03;;;;;;;4.03;1.20;;;;;;;;;;5073229;28;20126;-87
2023/08/22 10:49:32;;;;;;;3.88;1.25;;;;;;;;;;5083535;28;20077;-87
2023/08/22 10:52:05;;;;;;;2.53;0.85;;;;;;;;;;5065010;28;20023;-87
2023/08/22 10:54:31;;;;;;;3.40;0.75;;;;;;;;;;5062216;28;20020;-87
2023/08/22 10:57:15;;;;;;;3.53;0.88;;;;;;;;;;5075433;28;20017;-88
2023/08/22 10:59:53;;;;;;;3.13;0.80;;;;;;;;;;5069915;28;20052;-85
2023/08/22 11:02:19;;;;;;;4.90;1.17;;;;;;;;;;5074949;28;20053;-87
2023/08/22 11:04:44;;;;;;;4.50;1.30;;;;;;;;;;5055038;28;20520;-88
2023/08/22 11:07:10;;;;;;;2.30;0.73;;;;;;;;;;5056179;28;20073;-88
2023/08/22 11:09:36;;;;;;;3.50;1.10;;;;;;;;;;5060907;28;20012;-87
2023/08/22 11:12:01;;;;;;;2.88;1.10;;;;;;;;;;5082309;28;20012;-87
2023/08/22 11:14:27;;;;;;;5.10;1.27;;;;;;;;;;5054877;28;20042;-87
2023/08/22 11:16:55;;;;;;;3.17;0.90;;;;;;;;;;5073390;28;20059;-87
2023/08/22 11:19:20;;;;;;;3.72;1.10;;;;;;;;;;5073787;28;20025;-87
2023/08/22 11:21:45;;;;;;;2.20;0.90;;;;;;;;;;5062090;28;20046;-87
2023/08/22 11:24:10;;;;;;;3.90;1.10;;;;;;;;;;5062157;28;20471;-87
2023/08/22 11:26:36;;;;;;;4.10;1.05;;;;;;;;;;5054298;28;20040;-87
2023/08/22 11:29:07;;;;;;;3.28;0.63;;;;;;;;;;5065738;28;20023;-87
2023/08/22 11:31:36;;;;;;;3.85;1.05;;;;;;;;;;5061482;28;20020;-87
2023/08/22 11:34:03;;;;;;;3.40;0.95;;;;;;;;;;5066839;28;20336;-87
2023/08/22 11:36:33;;;;;;;8.48;0.93;;;;;;;;;;5055525;28;20043;-87
2023/08/22 11:38:58;;;;;;;4.22;0.93;;;;;;;;;;5072617;28;20049;-88
2023/08/22 11:41:24;;;;;;;2.42;0.80;;;;;;;;;;5055686;28;20021;-87
2023/08/22 11:43:58;;;;;;;2.78;1.10;;;;;;;;;;5054684;28;20138;-88
2023/08/22 11:46:23;;;;;;;4.05;0.80;;;;;;;;;;5078105;28;20036;-87
2023/08/22 11:48:49;;;;;;;3.65;0.80;;;;;;;;;;5055664;28;20017;-87
2023/08/22 11:51:20;;;;;;;1.95;0.70;;;;;;;;;;5073288;28;20087;-87
2023/08/22 11:53:46;;;;;;;2.03;0.60;;;;;;;;;;5059287;28;20055;-87
2023/08/22 11:56:12;;;;;;;2.17;0.60;;;;;;;;;;5057320;28;20031;-87
2023/08/22 11:58:42;;;;;;;3.35;0.75;;;;;;;;;;5055113;28;20021;-87
2023/08/22 12:01:08;;;;;;;2.45;0.70;;;;;;;;;;5080558;28;20073;-87
2023/08/22 12:03:41;;;;;;;4.30;0.75;;;;;;;;;;5071730;28;20112;-87
2023/08/22 12:06:12;;;;;;;1.70;0.57;;;;;;;;;;5067677;28;20070;-88
2023/08/22 12:08:37;;;;;;;4.18;0.73;;;;;;;;;;5073175;28;20148;-87
2023/08/22 12:11:03;;;;;;;1.00;0.60;;;;;;;;;;5094979;28;20055;-87
2023/08/22 12:13:29;;;;;;;2.28;0.80;;;;;;;;;;5064164;28;20024;-88
2023/08/22 12:15:55;;;;;;;2.33;0.63;;;;;;;;;;5073234;28;20343;-87
2023/08/22 12:18:27;;;;;;;2.63;0.60;;;;;;;;;;5085133;28;20028;-87
2023/08/22 12:20:52;;;;;;;2.67;0.60;;;;;;;;;;5073464;28;20494;-87
2023/08/22 12:23:18;;;;;;;2.33;0.45;;;;;;;;;;5060377;28;20020;-87
2023/08/22 12:25:43;;;;;;;1.80;0.63;;;;;;;;;;5056411;28;20028;-87
2023/08/22 12:28:09;;;;;;;2.58;0.30;;;;;;;;;;5072618;28;20464;-87
2023/08/22 12:30:38;;;;;;;1.67;0.70;;;;;;;;;;5073327;28;20096;-87
2023/08/22 12:33:04;;;;;;;1.35;0.50;;;;;;;;;;5054740;28;20036;-87
2023/08/22 12:35:29;;;;;;;2.88;0.60;;;;;;;;;;5076638;28;20641;-86
2023/08/22 12:37:55;;;;;;;0.60;0.30;;;;;;;;;;5069090;28;20421;-86
2023/08/22 12:40:20;;;;;;;1.35;0.47;;;;;;;;;;5058619;28;20463;-87
2023/08/22 12:42:46;;;;;;;4.97;0.65;;;;;;;;;;5076441;28;20089;-86
2023/08/22 12:45:11;;;;;;;3.22;1.15;;;;;;;;;;5089801;28;20047;-87
2023/08/22 12:47:37;;;;;;;2.47;0.68;;;;;;;;;;5057910;28;20016;-87
2023/08/22 12:50:02;;;;;;;2.00;0.60;;;;;;;;;;5089493;28;20115;-87
2023/08/22 12:52:28;;;;;;;1.27;0.63;;;;;;;;;;5076000;28;20058;-87
2023/08/22 12:54:53;;;;;;;4.20;0.60;;;;;;;;;;5076108;28;20085;-87
2023/08/22 12:57:18;;;;;;;3.95;0.70;;;;;;;;;;5065874;28;20024;-87
2023/08/22 12:59:44;;;;;;;1.98;0.60;;;;;;;;;;5059169;28;20119;-87
2023/08/22 13:02:09;;;;;;;3.30;0.75;;;;;;;;;;5056437;28;20031;-87
2023/08/22 13:04:34;;;;;;;2.42;0.57;;;;;;;;;;5057427;28;20021;-87
2023/08/22 13:06:59;;;;;;;2.50;0.50;;;;;;;;;;5058940;28;20500;-87
2023/08/22 13:09:25;;;;;;;7.40;0.93;;;;;;;;;;5070980;28;20410;-87
2023/08/22 13:11:51;;;;;;;0.98;0.50;;;;;;;;;;5070443;28;20103;-87
2023/08/22 13:14:16;;;;;;;3.17;0.75;;;;;;;;;;5058177;28;20115;-87
2023/08/22 13:16:43;;;;;;;4.22;0.88;;;;;;;;;;5057796;28;20441;-87
2023/08/22 13:19:09;;;;;;;0.88;0.52;;;;;;;;;;5074314;28;20109;-87
2023/08/22 13:21:34;;;;;;;4.47;0.65;;;;;;;;;;5096285;28;20020;-87
2023/08/22 13:24:00;;;;;;;1.70;0.50;;;;;;;;;;5061852;28;20124;-87
2023/08/22 13:26:26;;;;;;;2.72;0.75;;;;;;;;;;5057673;28;20059;-87
2023/08/22 13:28:51;;;;;;;1.40;0.47;;;;;;;;;;5057638;28;20023;-88
2023/08/22 13:31:17;;;;;;;2.58;0.47;;;;;;;;;;5055838;28;20070;-87
2023/08/22 13:33:42;;;;;;;1.70;0.60;;;;;;;;;;5052656;28;20029;-87
2023/08/22 13:36:08;;;;;;;1.17;0.60;;;;;;;;;;5061278;28;20020;-87
2023/08/22 13:38:33;;;;;;;1.50;0.40;;;;;;;;;;5081647;28;20016;-87
2023/08/22 13:40:58;;;;;;;0.82;0.40;;;;;;;;;;5069020;28;20025;-87
2023/08/22 13:43:23;;;;;;;3.85;0.63;;;;;;;;;;5059533;28;20095;-87
2023/08/22 13:45:49;;;;;;;3.97;0.55;;;;;;;;;;5059842;28;20124;-87
2023/08/22 13:48:14;;;;;;;1.95;0.50;;;;;;;;;;5059405;28;20012;-87
2023/08/22 13:50:43;;;;;;;1.48;0.50;;;;;;;;;;5076693;28;20020;-87
2023/08/22 13:53:08;;;;;;;2.67;0.50;;;;;;;;;;5066585;28;20379;-87
2023/08/22 13:55:33;;;;;;;2.58;0.30;;;;;;;;;;5061828;28;20032;-87
2023/08/22 13:58:02;;;;;;;1.88;0.60;;;;;;;;;;5066682;28;20017;-87
2023/08/22 14:00:28;;;;;;;1.30;0.40;;;;;;;;;;5090288;28;20024;-87
2023/08/22 14:02:53;;;;;;;0.75;0.40;;;;;;;;;;5056290;28;20740;-87
2023/08/22 14:05:19;;;;;;;2.72;0.57;;;;;;;;;;5074222;28;20111;-87
2023/08/22 14:07:44;;;;;;;4.15;0.30;;;;;;;;;;5057432;28;20017;-87
2023/08/22 14:10:09;;;;;;;1.65;0.50;;;;;;;;;;5056295;28;20752;-87
2023/08/22 14:12:35;;;;;;;2.38;0.40;;;;;;;;;;5055732;28;20107;-87
2023/08/22 14:15:00;;;;;;;3.45;0.63;;;;;;;;;;5074130;28;20052;-87
2023/08/22 14:17:25;;;;;;;1.48;0.40;;;;;;;;;;5073959;28;20025;-87
2023/08/22 14:19:53;;;;;;;1.55;0.73;;;;;;;;;;5056696;28;20115;-87
2023/08/22 14:22:18;;;;;;;1.25;0.40;;;;;;;;;;5055137;28;20024;-87
2023/08/22 14:24:47;;;;;;;1.77;0.38;;;;;;;;;;5072292;28;20379;-87
2023/08/22 14:27:12;;;;;;;2.47;0.40;;;;;;;;;;5061321;28;20088;-88
2023/08/22 14:29:37;;;;;;;1.40;0.35;;;;;;;;;;5085794;28;20063;-86
2023/08/22 14:32:03;;;;;;;1.45;0.40;;;;;;;;;;5055595;28;20028;-87
2023/08/22 14:34:28;;;;;;;1.90;0.38;;;;;;;;;;5068663;28;20020;-87
2023/08/22 14:36:54;;;;;;;2.47;0.50;;;;;;;;;;5055980;28;20032;-87